createdAt,value
2018-07-10T00:01:10.798Z,2.00
2018-07-10T00:03:51.450Z,2.80
2018-07-10T00:06:27.889Z,2.27
2018-07-10T00:11:13.900Z,2.40
2018-07-10T00:13:42.416Z,2.27
2018-07-10T00:16:10.870Z,2.27
2018-07-10T00:18:39.396Z,2.10
2018-07-10T00:21:08.066Z,1.90
2018-07-10T00:23:36.633Z,2.00
2018-07-10T00:26:05.110Z,2.37
2018-07-10T00:28:33.598Z,2.13
2018-07-10T00:31:02.080Z,1.93
2018-07-10T00:33:30.595Z,1.90
2018-07-10T00:35:59.168Z,2.80
2018-07-10T00:38:38.846Z,2.67
2018-07-10T00:41:07.380Z,1.93
2018-07-10T00:43:35.874Z,2.33
2018-07-10T00:46:04.377Z,2.30
2018-07-10T00:48:32.920Z,2.20
2018-07-10T00:51:01.456Z,2.07
2018-07-10T00:53:29.948Z,2.20
2018-07-10T00:55:58.502Z,2.00
2018-07-10T00:58:27.049Z,1.97
2018-07-10T01:00:55.512Z,2.27
2018-07-10T01:03:24.042Z,2.77
2018-07-10T01:05:52.516Z,2.50
2018-07-10T01:08:21.059Z,2.57
2018-07-10T01:10:54.110Z,2.57
2018-07-10T01:13:22.578Z,2.57
2018-07-10T01:15:51.281Z,2.20
2018-07-10T01:18:25.117Z,2.43
2018-07-10T01:20:53.578Z,2.53
2018-07-10T01:23:28.849Z,2.03
2018-07-10T01:25:58.343Z,2.67
2018-07-10T01:28:27.000Z,2.17
2018-07-10T01:30:55.679Z,2.53
2018-07-10T01:33:24.203Z,2.07
2018-07-10T01:35:52.691Z,2.63
2018-07-10T01:38:22.610Z,2.23
2018-07-10T01:40:52.211Z,2.47
2018-07-10T01:43:21.036Z,1.93
2018-07-10T01:45:49.552Z,2.00
2018-07-10T01:48:48.382Z,2.60
2018-07-10T01:51:16.949Z,2.20
2018-07-10T01:53:46.867Z,2.30
2018-07-10T01:56:15.323Z,2.33
2018-07-10T01:58:43.866Z,2.27
2018-07-10T02:01:12.432Z,2.50
2018-07-10T02:03:40.929Z,2.33
2018-07-10T02:06:10.761Z,2.33
2018-07-10T02:08:39.690Z,2.07
2018-07-10T02:11:08.316Z,2.70
2018-07-10T02:13:36.862Z,2.10
2018-07-10T02:16:05.388Z,1.90
2018-07-10T02:18:33.868Z,1.93
2018-07-10T02:21:06.325Z,2.33
2018-07-10T02:23:38.451Z,2.30
2018-07-10T02:26:08.699Z,2.07
2018-07-10T02:28:37.257Z,3.00
2018-07-10T02:31:05.905Z,1.80
2018-07-10T02:33:34.424Z,1.87
2018-07-10T02:36:02.992Z,1.97
2018-07-10T02:38:31.583Z,2.30
2018-07-10T02:41:00.378Z,2.13
2018-07-10T02:43:28.916Z,2.17
2018-07-10T02:45:58.474Z,2.30
2018-07-10T02:48:30.380Z,2.50
2018-07-10T02:51:00.074Z,1.97
2018-07-10T02:53:30.011Z,1.97
2018-07-10T02:55:58.570Z,2.03
2018-07-10T02:58:28.207Z,1.80
2018-07-10T03:00:56.779Z,2.10
2018-07-10T03:03:25.892Z,2.50
2018-07-10T03:05:54.416Z,1.70
2018-07-10T03:08:22.880Z,2.00
2018-07-10T03:10:51.401Z,2.70
2018-07-10T03:13:19.919Z,2.50
2018-07-10T03:15:48.454Z,2.60
2018-07-10T03:18:17.020Z,2.67
2018-07-10T03:20:45.922Z,2.57
2018-07-10T03:23:14.513Z,2.70
2018-07-10T03:25:43.036Z,2.50
2018-07-10T03:28:11.926Z,2.90
2018-07-10T03:30:40.604Z,2.70
2018-07-10T03:33:09.210Z,2.60
2018-07-10T03:35:37.739Z,2.90
2018-07-10T03:38:06.219Z,2.57
2018-07-10T03:40:34.764Z,3.53
2018-07-10T03:43:03.295Z,3.00
2018-07-10T03:45:31.786Z,2.30
2018-07-10T03:48:00.328Z,2.63
2018-07-10T03:50:28.978Z,2.63
2018-07-10T03:52:58.012Z,2.90
2018-07-10T03:55:26.522Z,2.57
2018-07-10T03:57:56.200Z,2.67
2018-07-10T04:00:24.913Z,2.20
2018-07-10T04:02:53.967Z,2.70
2018-07-10T04:05:23.601Z,3.03
2018-07-10T04:07:56.319Z,3.00
2018-07-10T04:10:32.311Z,2.70
2018-07-10T04:13:19.321Z,2.30
2018-07-10T04:15:49.871Z,2.07
2018-07-10T04:18:21.429Z,2.43
2018-07-10T04:21:26.977Z,2.53
2018-07-10T04:24:03.760Z,2.40
2018-07-10T04:26:34.924Z,2.53
2018-07-10T04:29:07.072Z,2.83
2018-07-10T04:31:45.900Z,3.13
2018-07-10T04:34:14.444Z,2.77
2018-07-10T04:36:42.957Z,2.30
2018-07-10T04:39:11.441Z,2.30
2018-07-10T04:41:42.306Z,2.77
2018-07-10T04:44:13.659Z,2.73
2018-07-10T04:46:44.232Z,2.33
2018-07-10T04:49:33.973Z,2.40
2018-07-10T04:52:12.462Z,2.70
2018-07-10T04:54:54.533Z,2.60
2018-07-10T04:57:27.866Z,3.60
2018-07-10T04:59:57.568Z,2.53
2018-07-10T05:02:26.131Z,2.10
2018-07-10T05:04:55.160Z,2.50
2018-07-10T05:07:23.702Z,2.63
2018-07-10T05:09:52.195Z,2.77
2018-07-10T05:12:20.758Z,2.63
2018-07-10T05:14:50.628Z,2.33
2018-07-10T05:17:19.151Z,2.83
2018-07-10T05:19:48.079Z,2.83
2018-07-10T05:22:17.107Z,2.50
2018-07-10T05:24:45.882Z,2.80
2018-07-10T05:27:14.728Z,2.27
2018-07-10T05:29:43.284Z,2.63
2018-07-10T05:32:12.211Z,2.40
2018-07-10T05:34:41.201Z,2.57
2018-07-10T05:37:11.600Z,2.43
2018-07-10T05:39:44.013Z,2.77
2018-07-10T05:42:12.892Z,3.03
2018-07-10T05:44:41.469Z,2.30
2018-07-10T05:47:10.152Z,2.03
2018-07-10T05:49:39.821Z,2.37
2018-07-10T05:52:08.764Z,2.00
2018-07-10T05:54:38.588Z,2.57
2018-07-10T05:57:07.559Z,3.00
2018-07-10T05:59:36.285Z,1.80
2018-07-10T06:02:04.818Z,1.93
2018-07-10T06:04:33.355Z,1.93
2018-07-10T06:07:03.094Z,1.80
2018-07-10T06:09:31.952Z,1.90
2018-07-10T06:12:00.439Z,1.43
2018-07-10T06:14:28.896Z,2.17
2018-07-10T06:16:57.527Z,2.27
2018-07-10T06:19:26.057Z,1.87
2018-07-10T06:21:54.544Z,1.80
2018-07-10T06:24:24.474Z,1.77
2018-07-10T06:27:00.016Z,1.97
2018-07-10T06:29:34.274Z,1.90
2018-07-10T06:32:02.797Z,1.90
2018-07-10T06:34:38.378Z,2.23
2018-07-10T06:37:09.835Z,1.57
2018-07-10T06:39:38.766Z,1.87
2018-07-10T06:42:15.322Z,1.80
2018-07-10T06:44:47.639Z,1.80
2018-07-10T06:47:21.799Z,1.70
2018-07-10T06:49:50.853Z,1.60
2018-07-10T06:52:21.033Z,1.93
2018-07-10T06:54:54.854Z,1.70
2018-07-10T06:57:26.474Z,1.70
2018-07-10T06:59:55.244Z,2.00
2018-07-10T07:02:23.724Z,1.60
2018-07-10T07:04:52.425Z,1.90
2018-07-10T07:07:21.133Z,2.20
2018-07-10T07:09:49.686Z,1.80
2018-07-10T07:12:18.167Z,1.50
2018-07-10T07:14:46.687Z,2.27
2018-07-10T07:17:15.283Z,2.20
2018-07-10T07:19:43.795Z,2.17
2018-07-10T07:22:12.343Z,2.43
2018-07-10T07:24:40.892Z,2.07
2018-07-10T07:27:09.458Z,2.50
2018-07-10T07:29:37.995Z,2.37
2018-07-10T07:32:06.474Z,2.43
2018-07-10T07:34:34.979Z,2.30
2018-07-10T07:37:03.454Z,2.27
2018-07-10T07:39:31.966Z,2.40
2018-07-10T07:42:00.442Z,2.57
2018-07-10T07:44:28.998Z,2.80
2018-07-10T07:46:58.634Z,2.60
2018-07-10T07:49:27.818Z,2.60
2018-07-10T07:51:56.423Z,2.83
2018-07-10T07:54:24.982Z,2.97
2018-07-10T07:56:53.556Z,3.00
2018-07-10T07:59:22.078Z,2.83
2018-07-10T08:01:50.680Z,3.07
2018-07-10T08:04:19.392Z,2.80
2018-07-10T08:06:48.476Z,3.17
2018-07-10T08:09:17.237Z,3.67
2018-07-10T08:11:46.183Z,2.97
2018-07-10T08:14:16.255Z,3.53
2018-07-10T08:16:45.070Z,3.17
2018-07-10T08:19:15.391Z,3.77
2018-07-10T08:21:46.255Z,3.23
2018-07-10T08:24:14.866Z,3.60
2018-07-10T08:26:43.553Z,3.37
2018-07-10T08:29:12.652Z,3.67
2018-07-10T08:31:42.175Z,3.33
2018-07-10T08:34:10.800Z,3.70
2018-07-10T08:36:39.362Z,3.90
2018-07-10T08:39:08.072Z,3.60
2018-07-10T08:41:46.581Z,3.87
2018-07-10T08:44:17.118Z,4.40
2018-07-10T08:46:47.978Z,3.10
2018-07-10T08:49:16.527Z,3.23
2018-07-10T08:51:50.959Z,3.03
2018-07-10T08:54:21.894Z,3.53
2018-07-10T08:56:50.876Z,3.33
2018-07-10T08:59:19.820Z,4.23
2018-07-10T09:01:49.107Z,4.00
2018-07-10T09:04:20.441Z,3.70
2018-07-10T09:06:50.042Z,3.00
2018-07-10T09:09:19.927Z,3.17
2018-07-10T09:11:48.490Z,3.10
2018-07-10T09:14:17.477Z,2.87
2018-07-10T09:16:46.551Z,2.83
2018-07-10T09:19:17.272Z,2.87
2018-07-10T09:21:51.545Z,3.10
2018-07-10T09:24:20.125Z,3.70
2018-07-10T09:26:50.756Z,3.90
2018-07-10T09:29:19.476Z,4.83
2018-07-10T09:31:48.050Z,4.80
2018-07-10T09:34:16.513Z,4.70
2018-07-10T09:36:45.173Z,4.00
2018-07-10T09:39:13.702Z,4.40
2018-07-10T09:41:42.445Z,3.70
2018-07-10T09:44:11.934Z,3.33
2018-07-10T09:46:40.452Z,4.00
2018-07-10T09:49:09.035Z,3.43
2018-07-10T09:51:37.604Z,3.30
2018-07-10T09:54:06.160Z,2.77
2018-07-10T09:56:34.696Z,2.70
2018-07-10T09:59:03.270Z,2.77
2018-07-10T10:01:32.828Z,2.83
2018-07-10T10:04:01.939Z,3.40
2018-07-10T10:06:30.454Z,3.43
2018-07-10T10:08:59.095Z,2.93
2018-07-10T10:11:27.533Z,3.10
2018-07-10T10:13:56.016Z,3.00
2018-07-10T10:16:24.451Z,3.23
2018-07-10T10:18:55.277Z,3.40
2018-07-10T10:21:23.744Z,3.80
2018-07-10T10:23:52.301Z,3.23
2018-07-10T10:26:21.439Z,3.70
2018-07-10T10:28:50.623Z,3.60
2018-07-10T10:31:19.195Z,3.47
2018-07-10T10:33:47.744Z,3.53
2018-07-10T10:36:16.188Z,3.97
2018-07-10T10:38:46.727Z,3.47
2018-07-10T10:41:16.545Z,4.00
2018-07-10T10:43:46.075Z,4.13
2018-07-10T10:46:16.398Z,4.37
2018-07-10T10:48:44.847Z,3.87
2018-07-10T10:51:14.199Z,3.67
2018-07-10T10:53:43.431Z,4.17
2018-07-10T10:56:11.982Z,4.27
2018-07-10T10:58:40.572Z,4.67
2018-07-10T11:01:09.207Z,3.97
2018-07-10T11:03:37.752Z,3.67
2018-07-10T11:06:06.456Z,4.40
2018-07-10T11:08:35.596Z,4.73
2018-07-10T11:11:04.852Z,4.80
2018-07-10T11:13:33.440Z,4.33
2018-07-10T11:16:01.967Z,4.17
2018-07-10T11:18:37.265Z,4.30
2018-07-10T11:22:19.960Z,4.10
2018-07-10T11:25:10.977Z,4.30
2018-07-10T11:28:01.023Z,3.60
2018-07-10T11:30:29.883Z,4.10
2018-07-10T11:32:58.456Z,3.83
2018-07-10T11:35:26.992Z,4.57
2018-07-10T11:37:56.388Z,4.30
2018-07-10T11:40:24.931Z,4.40
2018-07-10T11:42:53.579Z,4.30
2018-07-10T11:45:22.172Z,3.60
2018-07-10T11:47:50.744Z,3.30
2018-07-10T11:50:19.287Z,3.13
2018-07-10T11:52:47.751Z,4.37
2018-07-10T11:55:16.324Z,3.40
2018-07-10T11:57:44.861Z,4.00
2018-07-10T12:00:13.334Z,3.50
2018-07-10T12:02:46.160Z,3.77
2018-07-10T12:05:16.685Z,3.53
2018-07-10T12:07:50.188Z,3.50
2018-07-10T12:10:23.689Z,3.30
2018-07-10T12:12:52.777Z,3.23
2018-07-10T12:15:21.900Z,2.90
2018-07-10T12:17:53.542Z,2.50
2018-07-10T12:20:30.214Z,2.63
2018-07-10T12:22:59.535Z,2.40
2018-07-10T12:25:28.961Z,3.23
2018-07-10T12:27:57.508Z,2.70
2018-07-10T12:30:26.103Z,2.60
2018-07-10T12:32:54.584Z,2.77
2018-07-10T12:35:23.250Z,2.70
2018-07-10T12:37:51.902Z,2.80
2018-07-10T12:40:20.495Z,3.13
2018-07-10T12:42:49.088Z,3.30
2018-07-10T12:45:17.726Z,2.80
2018-07-10T12:47:46.340Z,3.10
2018-07-10T12:50:15.032Z,3.07
2018-07-10T12:52:44.033Z,2.67
2018-07-10T12:55:13.253Z,2.73
2018-07-10T12:57:44.141Z,2.80
2018-07-10T13:00:13.319Z,3.10
2018-07-10T13:02:43.920Z,3.60
2018-07-10T13:05:14.320Z,2.97
2018-07-10T13:07:43.006Z,2.80
2018-07-10T13:10:11.595Z,2.50
2018-07-10T13:12:40.200Z,2.83
2018-07-10T13:15:08.896Z,2.50
2018-07-10T13:17:41.372Z,3.03
2018-07-10T13:20:09.925Z,3.10
2018-07-10T13:22:38.464Z,2.50
2018-07-10T13:25:06.914Z,2.53
2018-07-10T13:27:35.516Z,2.00
2018-07-10T13:30:04.357Z,1.90
2018-07-10T13:32:32.897Z,2.07
2018-07-10T13:35:01.480Z,2.00
2018-07-10T13:37:30.206Z,2.20
2018-07-10T13:40:05.442Z,2.37
2018-07-10T13:42:49.771Z,2.23
2018-07-10T13:45:19.348Z,2.47
2018-07-10T13:47:48.180Z,2.13
2018-07-10T13:50:21.863Z,2.23
2018-07-10T13:52:50.550Z,2.47
2018-07-10T13:55:19.265Z,2.40
2018-07-10T13:57:57.835Z,2.27
2018-07-10T14:00:26.446Z,2.30
2018-07-10T14:02:55.410Z,2.70
2018-07-10T14:05:25.253Z,2.43
2018-07-10T14:07:54.090Z,2.47
2018-07-10T14:10:23.231Z,3.10
2018-07-10T14:12:51.782Z,2.80
2018-07-10T14:15:20.359Z,2.67
2018-07-10T14:17:48.971Z,2.20
2018-07-10T14:20:17.583Z,1.93
2018-07-10T14:22:46.080Z,1.80
2018-07-10T14:25:14.644Z,1.70
2018-07-10T14:27:43.128Z,1.77
2018-07-10T14:30:11.607Z,2.13
2018-07-10T14:32:40.163Z,1.90
2018-07-10T14:35:08.734Z,2.00
2018-07-10T14:37:37.573Z,2.30
2018-07-10T14:40:06.168Z,2.00
2018-07-10T14:42:34.817Z,2.40
2018-07-10T14:45:04.971Z,2.23
2018-07-10T14:47:33.746Z,2.33
2018-07-10T14:50:03.037Z,2.10
2018-07-10T14:52:31.630Z,1.70
2018-07-10T14:55:00.248Z,2.40
2018-07-10T14:57:28.776Z,1.90
2018-07-10T14:59:57.332Z,2.03
2018-07-10T15:02:25.854Z,1.90
2018-07-10T15:04:54.398Z,2.10
2018-07-10T15:07:22.863Z,2.20
2018-07-10T15:09:51.404Z,2.10
2018-07-10T15:12:19.830Z,2.57
2018-07-10T15:14:48.416Z,2.13
2018-07-10T15:17:22.101Z,1.93
2018-07-10T15:19:50.636Z,2.30
2018-07-10T15:22:19.133Z,2.40
2018-07-10T15:24:47.650Z,2.03
2018-07-10T15:27:16.263Z,2.10
2018-07-10T15:29:44.851Z,1.90
2018-07-10T15:32:13.397Z,2.03
2018-07-10T15:34:41.980Z,2.30
2018-07-10T15:37:10.549Z,2.57
2018-07-10T15:39:39.221Z,2.30
2018-07-10T15:42:07.868Z,1.90
2018-07-10T15:44:36.528Z,2.20
2018-07-10T15:47:05.109Z,2.03
2018-07-10T15:49:33.644Z,2.10
2018-07-10T15:52:02.236Z,1.80
2018-07-10T15:54:31.645Z,2.20
2018-07-10T15:57:00.570Z,2.30
2018-07-10T15:59:29.114Z,2.17
2018-07-10T16:01:57.647Z,2.00
2018-07-10T16:04:26.190Z,2.40
2018-07-10T16:06:55.160Z,2.00
2018-07-10T16:09:23.690Z,1.37
2018-07-10T16:11:56.753Z,1.63
2018-07-10T16:14:25.413Z,2.33
2018-07-10T16:16:53.938Z,2.10
2018-07-10T16:19:33.615Z,1.80
2018-07-10T16:22:07.710Z,1.50
2018-07-10T16:24:43.953Z,1.60
2018-07-10T16:27:12.460Z,1.63
2018-07-10T16:29:41.101Z,1.90
2018-07-10T16:32:09.596Z,1.70
2018-07-10T16:34:38.563Z,1.80
2018-07-10T16:37:07.147Z,2.20
2018-07-10T16:39:37.020Z,1.80
2018-07-10T16:42:10.860Z,1.70
2018-07-10T16:44:40.523Z,1.53
2018-07-10T16:47:12.724Z,1.87
2018-07-10T16:49:43.610Z,1.43
2018-07-10T16:52:26.137Z,1.67
2018-07-10T16:54:54.655Z,1.70
2018-07-10T16:57:23.149Z,1.70
2018-07-10T16:59:51.620Z,1.80
2018-07-10T17:02:20.384Z,1.57
2018-07-10T17:04:48.983Z,1.80
2018-07-10T17:07:17.963Z,1.50
2018-07-10T17:09:46.567Z,1.50
2018-07-10T17:12:15.095Z,1.67
2018-07-10T17:14:50.845Z,1.60
2018-07-10T17:17:19.336Z,1.60
2018-07-10T17:19:47.784Z,1.33
2018-07-10T17:22:16.333Z,1.63
2018-07-10T17:24:45.069Z,1.70
2018-07-10T17:27:13.699Z,1.57
2018-07-10T17:29:42.195Z,1.47
2018-07-10T17:32:10.694Z,1.70
2018-07-10T17:34:39.224Z,1.60
2018-07-10T17:37:07.831Z,1.50
2018-07-10T17:39:36.322Z,1.50
2018-07-10T17:42:04.845Z,1.63
2018-07-10T17:44:33.576Z,1.33
2018-07-10T17:47:02.134Z,1.63
2018-07-10T17:49:30.621Z,1.63
2018-07-10T17:51:59.302Z,2.07
2018-07-10T17:54:28.024Z,1.87
2018-07-10T17:56:56.463Z,1.50
2018-07-10T17:59:24.910Z,1.60
2018-07-10T18:01:53.506Z,1.83
2018-07-10T18:04:22.021Z,1.97
2018-07-10T18:06:50.550Z,1.77
2018-07-10T18:09:19.156Z,1.77
2018-07-10T18:11:47.652Z,2.23
2018-07-10T18:14:16.202Z,2.40
2018-07-10T18:16:44.800Z,1.90
2018-07-10T18:19:13.300Z,2.00
2018-07-10T18:21:41.890Z,2.10
2018-07-10T18:24:10.534Z,2.40
2018-07-10T18:26:39.097Z,2.40
2018-07-10T18:29:07.884Z,2.37
2018-07-10T18:31:36.434Z,2.60
2018-07-10T18:34:05.029Z,2.40
2018-07-10T18:36:35.800Z,2.50
2018-07-10T18:39:04.719Z,2.30
2018-07-10T18:41:33.207Z,2.60
2018-07-10T18:44:02.135Z,2.33
2018-07-10T18:46:30.691Z,2.67
2018-07-10T18:48:59.636Z,2.63
2018-07-10T18:51:31.936Z,2.77
2018-07-10T18:54:02.608Z,2.47
2018-07-10T18:56:31.164Z,2.60
2018-07-10T18:59:10.451Z,2.60
2018-07-10T19:02:02.427Z,2.80
2018-07-10T19:04:40.531Z,2.13
2018-07-10T19:07:10.639Z,1.90
2018-07-10T19:09:42.156Z,1.80
2018-07-10T19:12:12.398Z,2.00
2018-07-10T19:14:41.451Z,1.70
2018-07-10T19:17:13.161Z,1.30
2018-07-10T19:20:07.065Z,1.60
2018-07-10T19:25:28.681Z,1.70
2018-07-10T19:27:59.594Z,2.00
2018-07-10T19:30:38.204Z,2.40
2018-07-10T19:33:06.742Z,1.93
2018-07-10T19:35:35.199Z,2.10
2018-07-10T19:38:03.736Z,2.40
2018-07-10T19:40:32.306Z,2.30
2018-07-10T19:43:00.808Z,2.30
2018-07-10T19:45:29.272Z,2.23
2018-07-10T19:47:57.888Z,2.77
2018-07-10T19:50:33.500Z,2.50
2018-07-10T19:53:01.976Z,2.40
2018-07-10T19:55:30.544Z,2.87
2018-07-10T19:58:14.534Z,2.73
2018-07-10T20:00:46.652Z,2.83
2018-07-10T20:03:24.349Z,2.40
2018-07-10T20:05:53.263Z,2.97
2018-07-10T20:08:21.764Z,2.23
2018-07-10T20:10:55.347Z,2.33
2018-07-10T20:13:32.190Z,2.50
2018-07-10T20:16:10.339Z,2.30
2018-07-10T20:18:51.782Z,2.50
2018-07-10T20:21:31.494Z,2.43
2018-07-10T20:24:20.770Z,2.70
2018-07-10T20:26:58.778Z,2.57
2018-07-10T20:31:44.154Z,2.63
2018-07-10T20:34:20.840Z,2.40
2018-07-10T20:37:52.398Z,3.03
2018-07-10T20:40:31.810Z,2.47
2018-07-10T20:43:04.385Z,2.53
2018-07-10T20:45:33.036Z,2.87
2018-07-10T20:48:01.783Z,2.97
2018-07-10T20:51:09.328Z,2.77
2018-07-10T20:54:00.914Z,2.90
2018-07-10T20:56:40.204Z,3.07
2018-07-10T20:59:17.985Z,2.97
2018-07-10T21:01:48.238Z,2.93
2018-07-10T21:04:29.480Z,3.00
2018-07-10T21:07:01.154Z,2.97
2018-07-10T21:09:52.863Z,3.00
2018-07-10T21:12:33.909Z,2.73
2018-07-10T21:15:08.375Z,3.23
2018-07-10T21:17:49.870Z,3.33
2018-07-10T21:21:32.417Z,3.57
2018-07-10T21:24:14.326Z,3.13
2018-07-10T21:27:22.618Z,3.67
2018-07-10T21:30:16.417Z,3.70
2018-07-10T21:33:05.430Z,3.30
2018-07-10T21:35:42.563Z,3.13
2018-07-10T21:38:17.600Z,3.27
2018-07-10T21:41:00.774Z,3.80
2018-07-10T21:44:06.065Z,4.10
2018-07-10T21:46:41.466Z,4.40
2018-07-10T21:49:18.805Z,4.90
2018-07-10T21:51:49.029Z,4.57
2018-07-10T21:54:17.759Z,4.70
2018-07-10T21:56:46.376Z,4.37
2018-07-10T21:59:16.165Z,4.73
2018-07-10T22:01:52.188Z,4.53
2018-07-10T22:04:21.925Z,4.40
2018-07-10T22:06:52.584Z,4.80
2018-07-10T22:09:22.670Z,4.27
2018-07-10T22:11:51.336Z,4.53
2018-07-10T22:14:20.057Z,4.70
2018-07-10T22:16:48.642Z,4.43
2018-07-10T22:19:25.826Z,4.40
2018-07-10T22:21:55.295Z,4.53
2018-07-10T22:24:25.045Z,5.13
2018-07-10T22:26:57.184Z,4.90
2018-07-10T22:29:30.845Z,5.07
2018-07-10T22:32:00.318Z,4.90
2018-07-10T22:34:29.944Z,5.57
2018-07-10T22:36:58.743Z,5.63
2018-07-10T22:39:27.828Z,4.77
2018-07-10T22:41:59.375Z,5.20
2018-07-10T22:44:29.415Z,5.00
2018-07-10T22:47:00.046Z,4.90
2018-07-10T22:49:28.468Z,5.00
2018-07-10T22:51:59.312Z,4.70
2018-07-10T22:54:28.623Z,4.70
2018-07-10T22:56:57.373Z,4.27
2018-07-10T22:59:26.677Z,4.43
2018-07-10T23:01:55.148Z,4.53
2018-07-10T23:04:23.785Z,4.70
2018-07-10T23:06:52.274Z,4.10
2018-07-10T23:09:20.861Z,4.83
2018-07-10T23:11:49.437Z,4.73
2018-07-10T23:14:17.963Z,4.97
2018-07-10T23:16:46.963Z,5.20
2018-07-10T23:19:15.549Z,5.20
2018-07-10T23:21:44.146Z,5.70
2018-07-10T23:24:12.618Z,4.80
2018-07-10T23:26:42.100Z,4.90
2018-07-10T23:29:11.207Z,5.60
2018-07-10T23:31:42.313Z,5.13
2018-07-10T23:34:20.331Z,5.40
2018-07-10T23:36:51.716Z,4.87
2018-07-10T23:39:23.422Z,5.17
2018-07-10T23:41:57.160Z,5.20
2018-07-10T23:44:46.656Z,5.30
2018-07-10T23:47:23.433Z,5.90
2018-07-10T23:49:58.449Z,6.43
2018-07-10T23:53:37.787Z,5.00
2018-07-10T23:56:06.334Z,6.13
2018-07-10T23:58:35.454Z,6.30
